Ocean Tower — WDE4689 — position and weather

sailwx.info

Track history (hours):
 
Tides and Currents Weather Stations Pressure Air Temp Water Temp Dewpoint Dewpoint Depression Visibility Wind Speed Wind Dir Waves Ship Positions

Ocean Tower

Owner: Tug Ocean Tower, Tampa, FL. More information available from US FCC via Universal Licensing System and Coast Guard Vessel Documentation Center.

Last reported at 2018-Jan-08 05:20 UTC. Time now 2018-Feb-25 10:12 UTC.
Position N 25°31' W 080°03'.
Warning: this ship's position is 48 days out of date.

Length 34 m; draft 4.1 m.

Type: Tow > 200 m length. MMSI: 367356580.

Date/timePositionNaut miles runAvg speedWind from/ knotsBaromVisibWave heightAir tempDewpointWater temp
2018-Jan-08 05:20N 25°31' W 080°03'3 9.9
2018-Jan-08 05:00N 25°35' W 080°03'5 9.9
2018-Jan-08 04:30N 25°40' W 080°03'510.0
2018-Jan-08 04:00N 25°45' W 080°04'5 9.9
2018-Jan-08 03:31N 25°49' W 080°04'510.0
2018-Jan-08 03:00N 25°54' W 080°04'510.0
2018-Jan-08 02:30N 25°59' W 080°03'5 9.9
2018-Jan-08 02:00N 26°04' W 080°03'510.0
2018-Jan-08 01:30N 26°09' W 080°03'510.2
2018-Jan-08 01:00N 26°15' W 080°02'510.3
2018-Jan-08 00:30N 26°20' W 080°02'1410.4
2018-Jan-07 23:07N 26°34' W 080°01'110.2
2018-Jan-07 23:00N 26°35' W 080°01'510.0
2018-Jan-07 22:31N 26°40' W 080°01'510.0
2018-Jan-07 22:01N 26°45' W 080°00'5 9.9
2018-Jan-07 21:31N 26°50' W 080°01'510.4
2018-Jan-07 21:00N 26°55' W 080°02'  
Track history (hours):
 
Tides and Currents Weather Stations Pressure Air Temp Water Temp Dewpoint Dewpoint Depression Visibility Wind Speed Wind Dir Waves Ship Positions

Ocean Tower

Owner: Tug Ocean Tower, Tampa, FL. More information available from US FCC via Universal Licensing System and Coast Guard Vessel Documentation Center.

Last reported at 2018-Jan-08 05:20 UTC. Time now 2018-Feb-25 10:12 UTC.
Position N 25°31' W 080°03'.
Warning: this ship's position is 48 days out of date.

Length 34 m; draft 4.1 m.

Type: Tow > 200 m length. MMSI: 367356580.

Date/timePositionNaut miles runAvg speedWind from/ knotsBaromVisibWave heightAir tempDewpointWater temp
2018-Jan-08 05:20N 25°31' W 080°03'3 9.9
2018-Jan-08 05:00N 25°35' W 080°03'5 9.9
2018-Jan-08 04:30N 25°40' W 080°03'510.0
2018-Jan-08 04:00N 25°45' W 080°04'5 9.9
2018-Jan-08 03:31N 25°49' W 080°04'510.0
2018-Jan-08 03:00N 25°54' W 080°04'510.0
2018-Jan-08 02:30N 25°59' W 080°03'5 9.9
2018-Jan-08 02:00N 26°04' W 080°03'510.0
2018-Jan-08 01:30N 26°09' W 080°03'510.2
2018-Jan-08 01:00N 26°15' W 080°02'510.3
2018-Jan-08 00:30N 26°20' W 080°02'1410.4
2018-Jan-07 23:07N 26°34' W 080°01'110.2
2018-Jan-07 23:00N 26°35' W 080°01'510.0
2018-Jan-07 22:31N 26°40' W 080°01'510.0
2018-Jan-07 22:01N 26°45' W 080°00'5 9.9
2018-Jan-07 21:31N 26°50' W 080°01'510.4
2018-Jan-07 21:00N 26°55' W 080°02'  

Dump ship's entire track history